createdAt,value
2023-04-11T00:02:40.948Z,3.20
2023-04-11T00:05:42.924Z,5.18
2023-04-11T00:08:44.596Z,4.32
2023-04-11T00:11:46.210Z,3.55
2023-04-11T00:14:49.074Z,3.88
2023-04-11T00:17:50.969Z,3.30
2023-04-11T00:20:52.547Z,4.72
2023-04-11T00:23:54.449Z,3.40
2023-04-11T00:26:56.912Z,5.40
2023-04-11T00:29:58.399Z,3.45
2023-04-11T00:32:59.884Z,3.60
2023-04-11T00:36:01.489Z,3.50
2023-04-11T00:39:03.788Z,4.65
2023-04-11T00:42:07.170Z,5.57
2023-04-11T00:45:09.287Z,4.78
2023-04-11T00:48:11.037Z,3.10
2023-04-11T00:51:12.861Z,6.38
2023-04-11T00:54:14.337Z,4.30
2023-04-11T00:57:16.145Z,5.53
2023-04-11T01:00:17.691Z,4.55
2023-04-11T01:03:19.604Z,5.22
2023-04-11T01:06:23.656Z,3.83
2023-04-11T01:09:28.597Z,4.97
2023-04-11T01:12:30.752Z,5.85
2023-04-11T01:15:32.395Z,3.22
2023-04-11T01:18:34.139Z,4.60
2023-04-11T01:21:37.779Z,4.18
2023-04-11T01:24:39.293Z,3.58
2023-04-11T01:27:42.293Z,4.25
2023-04-11T01:30:43.892Z,5.25
2023-04-11T01:33:45.478Z,5.03
2023-04-11T01:36:47.654Z,4.05
2023-04-11T01:39:49.204Z,4.43
2023-04-11T01:42:51.861Z,4.47
2023-04-11T01:45:55.821Z,4.90
2023-04-11T01:48:58.589Z,5.20
2023-04-11T01:52:00.627Z,7.07
2023-04-11T01:55:02.175Z,4.18
2023-04-11T01:58:03.916Z,3.83
2023-04-11T02:01:05.655Z,6.28
2023-04-11T02:04:07.300Z,5.50
2023-04-11T02:07:08.825Z,6.63
2023-04-11T02:10:10.630Z,5.25
2023-04-11T02:13:12.127Z,4.32
2023-04-11T02:16:15.008Z,3.55
2023-04-11T02:19:16.884Z,4.13
2023-04-11T02:22:18.418Z,4.47
2023-04-11T02:25:21.346Z,3.95
2023-04-11T02:28:22.793Z,5.45
2023-04-11T02:31:27.406Z,4.82
2023-04-11T02:34:28.927Z,5.82
2023-04-11T02:37:30.916Z,4.38
2023-04-11T02:40:32.416Z,5.03
2023-04-11T02:43:34.161Z,3.70
2023-04-11T02:46:35.732Z,4.07
2023-04-11T02:49:41.235Z,5.07
2023-04-11T02:52:47.234Z,4.45
2023-04-11T02:55:50.484Z,4.22
2023-04-11T02:58:55.036Z,3.97
2023-04-11T03:01:59.957Z,2.80
2023-04-11T03:05:05.155Z,3.63
2023-04-11T03:08:09.929Z,5.75
2023-04-11T03:11:15.332Z,5.28
2023-04-11T03:14:17.356Z,3.75
2023-04-11T03:17:19.063Z,2.50
2023-04-11T03:20:20.712Z,5.00
2023-04-11T03:23:26.790Z,4.93
2023-04-11T03:26:28.389Z,4.57
2023-04-11T03:29:33.986Z,2.22
2023-04-11T03:32:43.321Z,4.13
2023-04-11T03:35:44.874Z,5.05
2023-04-11T03:38:46.356Z,2.72
2023-04-11T03:41:48.789Z,2.92
2023-04-11T03:44:50.381Z,2.15
2023-04-11T03:47:52.072Z,3.33
2023-04-11T03:50:57.025Z,2.67
2023-04-11T03:54:07.585Z,3.22
2023-04-11T03:57:13.437Z,3.75
2023-04-11T04:00:15.115Z,2.40
2023-04-11T04:03:16.821Z,2.60
2023-04-11T04:06:19.573Z,2.28
2023-04-11T04:09:24.014Z,3.78
2023-04-11T04:12:29.593Z,4.72
2023-04-11T04:15:45.600Z,2.53
2023-04-11T04:18:48.803Z,2.58
2023-04-11T04:21:50.384Z,1.80
2023-04-11T04:24:53.232Z,2.63
2023-04-11T04:27:58.211Z,2.95
2023-04-11T04:31:02.191Z,3.28
2023-04-11T04:34:09.868Z,3.38
2023-04-11T04:37:23.155Z,3.63
2023-04-11T04:40:31.747Z,3.33
2023-04-11T04:43:37.957Z,1.90
2023-04-11T04:46:59.662Z,1.85
2023-04-11T04:50:03.645Z,3.53
2023-04-11T04:53:07.161Z,3.20
2023-04-11T04:56:08.988Z,2.72
2023-04-11T04:59:16.141Z,1.60
2023-04-11T05:02:22.596Z,2.25
2023-04-11T05:05:24.978Z,3.28
2023-04-11T05:08:27.117Z,1.15
2023-04-11T05:11:31.916Z,6.82
2023-04-11T05:14:33.570Z,2.60
2023-04-11T05:17:36.102Z,2.90
2023-04-11T05:20:38.089Z,3.90
2023-04-11T05:23:40.312Z,3.20
2023-04-11T05:26:41.982Z,3.00
2023-04-11T05:29:45.832Z,2.60
2023-04-11T05:32:49.368Z,1.48
2023-04-11T05:35:51.827Z,1.75
2023-04-11T05:38:53.316Z,2.60
2023-04-11T05:41:55.104Z,1.95
2023-04-11T05:44:56.539Z,3.90
2023-04-11T05:47:58.229Z,3.70
2023-04-11T05:50:59.895Z,1.52
2023-04-11T05:54:01.352Z,3.50
2023-04-11T05:57:03.434Z,2.17
2023-04-11T06:00:16.852Z,1.30
2023-04-11T06:03:18.514Z,3.40
2023-04-11T06:06:20.100Z,3.33
2023-04-11T06:09:21.666Z,1.92
2023-04-11T06:12:23.117Z,3.35
2023-04-11T06:15:26.676Z,4.72
2023-04-11T06:18:28.193Z,4.75
2023-04-11T06:21:29.662Z,4.72
2023-04-11T06:24:36.069Z,3.63
2023-04-11T06:27:37.567Z,2.03
2023-04-11T06:30:39.052Z,2.05
2023-04-11T06:33:40.564Z,3.28
2023-04-11T06:36:42.668Z,3.08
2023-04-11T06:39:44.325Z,3.75
2023-04-11T06:42:47.002Z,3.78
2023-04-11T06:45:49.720Z,5.15
2023-04-11T06:48:51.209Z,3.15
2023-04-11T06:51:54.103Z,5.03
2023-04-11T06:54:55.831Z,5.22
2023-04-11T06:57:57.341Z,6.75
2023-04-11T07:00:58.792Z,7.00
2023-04-11T07:04:00.743Z,7.90
2023-04-11T07:07:02.456Z,10.15
2023-04-11T07:10:05.078Z,4.55
2023-04-11T07:13:06.501Z,3.95
2023-04-11T07:16:08.500Z,4.75
2023-04-11T07:19:10.069Z,2.72
2023-04-11T07:22:11.515Z,1.90
2023-04-11T07:25:13.212Z,3.60
2023-04-11T07:28:14.699Z,2.17
2023-04-11T07:31:17.997Z,8.32
2023-04-11T07:34:19.541Z,4.93
2023-04-11T07:37:21.556Z,4.18
2023-04-11T07:40:23.088Z,5.60
2023-04-11T07:43:28.609Z,5.88
2023-04-11T07:46:30.230Z,5.35
2023-04-11T07:49:31.710Z,6.22
2023-04-11T07:52:33.142Z,5.07
2023-04-11T07:55:34.621Z,4.63
2023-04-11T07:58:36.098Z,3.38
2023-04-11T08:01:37.663Z,5.85
2023-04-11T08:04:39.351Z,5.05
2023-04-11T08:07:41.766Z,3.42
2023-04-11T08:10:43.312Z,3.83
2023-04-11T08:13:45.181Z,4.60
2023-04-11T08:16:46.954Z,4.05
2023-04-11T08:19:48.416Z,3.22
2023-04-11T08:22:50.170Z,3.25
2023-04-11T08:25:51.675Z,5.32
2023-04-11T08:28:53.127Z,4.88
2023-04-11T08:31:54.579Z,3.08
2023-04-11T08:34:56.084Z,2.80
2023-04-11T08:37:57.559Z,4.55
2023-04-11T08:40:59.095Z,6.53
2023-04-11T08:44:00.774Z,4.38
2023-04-11T08:47:02.692Z,3.97
2023-04-11T08:50:08.214Z,2.05
2023-04-11T08:53:10.584Z,2.83
2023-04-11T08:56:18.210Z,2.60
2023-04-11T08:59:19.670Z,4.10
2023-04-11T09:02:21.873Z,2.97
2023-04-11T09:05:28.087Z,4.07
2023-04-11T09:08:38.120Z,4.63
2023-04-11T09:11:53.248Z,4.20
2023-04-11T09:14:54.785Z,4.63
2023-04-11T09:18:00.375Z,4.95
2023-04-11T09:21:06.004Z,5.53
2023-04-11T09:24:17.956Z,4.63
2023-04-11T09:27:24.275Z,5.63
2023-04-11T09:30:26.706Z,1.80
2023-04-11T09:33:31.680Z,3.95
2023-04-11T09:36:33.260Z,3.45
2023-04-11T09:39:34.883Z,4.45
2023-04-11T09:42:36.464Z,5.05
2023-04-11T09:45:47.817Z,4.80
2023-04-11T09:48:54.848Z,7.75
2023-04-11T09:51:57.725Z,4.93
2023-04-11T09:55:00.645Z,5.18
2023-04-11T09:58:04.795Z,6.05
2023-04-11T10:01:08.897Z,6.25
2023-04-11T10:07:18.461Z,7.18
2023-04-11T10:10:23.262Z,3.72
2023-04-11T10:13:44.061Z,6.88
2023-04-11T10:17:12.906Z,5.85
2023-04-11T10:20:43.476Z,6.18
2023-04-11T10:24:21.334Z,6.22
2023-04-11T10:27:50.654Z,3.67
2023-04-11T10:30:58.833Z,7.15
2023-04-11T10:34:16.802Z,5.18
2023-04-11T10:37:19.194Z,5.45
2023-04-11T10:40:21.087Z,5.22
2023-04-11T10:43:22.704Z,4.78
2023-04-11T10:46:26.531Z,5.72
2023-04-11T10:49:39.198Z,8.27
2023-04-11T10:52:41.685Z,4.53
2023-04-11T10:55:43.940Z,4.22
2023-04-11T10:58:45.461Z,5.30
2023-04-11T11:01:54.792Z,9.05
2023-04-11T11:04:56.360Z,5.25
2023-04-11T11:07:58.005Z,5.20
2023-04-11T11:11:10.633Z,5.63
2023-04-11T11:14:28.501Z,3.85
2023-04-11T11:17:29.992Z,4.43
2023-04-11T11:20:31.477Z,5.03
2023-04-11T11:23:34.364Z,6.22
2023-04-11T11:26:40.159Z,5.63
2023-04-11T11:29:41.707Z,4.47
2023-04-11T11:32:43.262Z,7.07
2023-04-11T11:36:00.555Z,6.88
2023-04-11T11:39:05.327Z,6.57
2023-04-11T11:42:06.908Z,8.40
2023-04-11T11:45:18.991Z,4.90
2023-04-11T11:48:24.587Z,6.47
2023-04-11T11:51:26.662Z,5.65
2023-04-11T11:54:28.128Z,5.72
2023-04-11T11:57:29.670Z,4.20
2023-04-11T12:00:39.350Z,5.03
2023-04-11T12:03:41.100Z,6.60
2023-04-11T12:06:45.759Z,7.95
2023-04-11T12:09:50.989Z,6.10
2023-04-11T12:12:53.582Z,5.80
2023-04-11T12:15:57.492Z,3.27
2023-04-11T12:19:00.665Z,5.93
2023-04-11T12:22:02.153Z,5.03
2023-04-11T12:25:07.834Z,5.15
2023-04-11T12:28:10.002Z,7.32
2023-04-11T12:31:12.408Z,3.92
2023-04-11T12:34:13.880Z,6.40
2023-04-11T12:37:15.304Z,7.75
2023-04-11T12:40:17.929Z,5.78
2023-04-11T12:43:19.397Z,5.47
2023-04-11T12:46:20.881Z,7.30
2023-04-11T12:49:22.345Z,5.97
2023-04-11T12:52:25.287Z,6.70
2023-04-11T12:55:26.918Z,5.10
2023-04-11T12:58:28.743Z,6.63
2023-04-11T13:01:30.590Z,6.45
2023-04-11T13:04:32.157Z,4.50
2023-04-11T13:07:34.940Z,5.97
2023-04-11T13:10:36.481Z,8.07
2023-04-11T13:13:37.998Z,5.97
2023-04-11T13:16:39.480Z,5.18
2023-04-11T13:19:41.114Z,5.85
2023-04-11T13:22:43.069Z,5.43
2023-04-11T13:25:44.594Z,5.72
2023-04-11T13:28:46.397Z,8.45
2023-04-11T13:31:48.028Z,5.82
2023-04-11T13:34:49.511Z,7.03
2023-04-11T13:37:51.970Z,8.65
2023-04-11T13:40:53.530Z,6.80
2023-04-11T13:43:54.928Z,7.10
2023-04-11T13:46:56.716Z,4.35
2023-04-11T13:49:58.227Z,6.07
2023-04-11T13:52:59.776Z,6.28
2023-04-11T13:56:03.056Z,6.93
2023-04-11T13:59:04.582Z,6.30
2023-04-11T14:02:06.163Z,7.97
2023-04-11T14:05:09.200Z,8.82
2023-04-11T14:08:10.663Z,5.78
2023-04-11T14:11:12.390Z,6.93
2023-04-11T14:14:13.939Z,5.60
2023-04-11T14:17:15.933Z,5.43
2023-04-11T14:20:17.530Z,7.65
2023-04-11T14:23:20.643Z,6.32
2023-04-11T14:26:22.096Z,6.83
2023-04-11T14:29:23.707Z,5.95
2023-04-11T14:32:25.398Z,4.53
2023-04-11T14:35:27.069Z,6.10
2023-04-11T14:38:28.605Z,7.05
2023-04-11T14:41:30.136Z,5.20
2023-04-11T14:44:31.579Z,6.13
2023-04-11T14:47:33.114Z,4.78
2023-04-11T14:50:34.656Z,4.38
2023-04-11T14:53:36.793Z,5.05
2023-04-11T14:56:38.442Z,7.22
2023-04-11T14:59:39.898Z,5.68
2023-04-11T15:02:41.387Z,3.97
2023-04-11T15:05:42.934Z,4.32
2023-04-11T15:08:44.561Z,5.82
2023-04-11T15:11:47.124Z,4.63
2023-04-11T15:14:48.933Z,6.35
2023-04-11T15:18:19.302Z,5.15
2023-04-11T15:21:20.898Z,6.68
2023-04-11T15:24:22.459Z,5.07
2023-04-11T15:27:23.943Z,4.97
2023-04-11T15:30:25.622Z,5.43
2023-04-11T15:33:27.566Z,4.45
2023-04-11T15:36:29.172Z,4.57
2023-04-11T15:39:30.933Z,8.52
2023-04-11T15:42:35.165Z,4.32
2023-04-11T15:45:38.204Z,7.15
2023-04-11T15:48:39.672Z,4.38
2023-04-11T15:51:41.287Z,5.93
2023-04-11T15:54:43.368Z,4.78
2023-04-11T15:57:44.767Z,3.38
2023-04-11T16:00:46.910Z,7.55
2023-04-11T16:03:49.285Z,5.80
2023-04-11T16:06:51.031Z,4.28
2023-04-11T16:09:52.528Z,4.88
2023-04-11T16:12:53.980Z,5.90
2023-04-11T16:15:55.616Z,5.25
2023-04-11T16:18:57.191Z,4.03
2023-04-11T16:21:58.812Z,6.38
2023-04-11T16:25:03.319Z,6.57
2023-04-11T16:28:04.857Z,6.80
2023-04-11T16:31:06.756Z,5.78
2023-04-11T16:34:08.269Z,5.35
2023-04-11T16:37:09.721Z,4.68
2023-04-11T16:40:11.506Z,3.78
2023-04-11T16:43:13.353Z,4.68
2023-04-11T16:46:15.914Z,5.63
2023-04-11T16:49:18.235Z,6.60
2023-04-11T16:52:19.670Z,6.60
2023-04-11T16:55:21.181Z,6.82
2023-04-11T16:58:23.118Z,10.18
2023-04-11T17:01:24.665Z,4.50
2023-04-11T17:04:26.238Z,3.58
2023-04-11T17:07:28.425Z,4.25
2023-04-11T17:10:29.897Z,3.45
2023-04-11T17:13:31.781Z,5.63
2023-04-11T17:16:33.316Z,4.60
2023-04-11T17:19:34.862Z,5.30
2023-04-11T17:22:36.825Z,7.78
2023-04-11T17:25:38.361Z,4.25
2023-04-11T17:28:40.816Z,4.43
2023-04-11T17:31:42.270Z,8.75
2023-04-11T17:34:43.790Z,8.13
2023-04-11T17:37:45.208Z,6.85
2023-04-11T17:40:46.679Z,6.85
2023-04-11T17:43:48.130Z,3.67
2023-04-11T17:46:49.700Z,7.63
2023-04-11T17:49:51.291Z,8.52
2023-04-11T17:52:53.108Z,5.82
2023-04-11T17:55:54.627Z,5.60
2023-04-11T17:58:56.116Z,5.07
2023-04-11T18:01:57.680Z,8.13
2023-04-11T18:05:00.867Z,6.53
2023-04-11T18:08:03.653Z,5.30
2023-04-11T18:11:05.347Z,5.68
2023-04-11T18:14:06.980Z,6.15
2023-04-11T18:17:08.436Z,9.30
2023-04-11T18:20:11.986Z,7.57
2023-04-11T18:23:13.488Z,10.40
2023-04-11T18:26:14.974Z,15.57
2023-04-11T18:29:16.521Z,15.15
2023-04-11T18:32:18.007Z,9.57
2023-04-11T18:35:20.246Z,7.15
2023-04-11T18:38:22.233Z,8.90
2023-04-11T18:41:24.863Z,8.32
2023-04-11T18:44:26.379Z,7.50
2023-04-11T18:47:27.956Z,8.30
2023-04-11T18:50:30.641Z,8.25
2023-04-11T18:53:32.406Z,8.65
2023-04-11T18:56:36.402Z,10.13
2023-04-11T18:59:43.605Z,8.18
2023-04-11T19:02:46.753Z,9.75
2023-04-11T19:05:49.344Z,10.10
2023-04-11T19:08:52.039Z,6.78
2023-04-11T19:11:53.984Z,7.60
2023-04-11T19:14:55.865Z,7.18
2023-04-11T19:17:57.740Z,7.38
2023-04-11T19:20:59.366Z,7.85
2023-04-11T19:24:00.853Z,4.75
2023-04-11T19:27:02.443Z,7.22
2023-04-11T19:30:04.321Z,7.15
2023-04-11T19:33:05.835Z,9.30
2023-04-11T19:36:07.487Z,6.45
2023-04-11T19:39:10.542Z,8.02
2023-04-11T19:42:12.504Z,5.57
2023-04-11T19:45:14.116Z,8.10
2023-04-11T19:48:16.243Z,5.55
2023-04-11T19:51:17.911Z,5.53
2023-04-11T19:54:19.469Z,7.88
2023-04-11T19:57:22.122Z,6.40
2023-04-11T20:00:25.051Z,9.40
2023-04-11T20:03:27.616Z,13.80
2023-04-11T20:06:29.424Z,10.40
2023-04-11T20:09:31.001Z,8.45
2023-04-11T20:12:32.454Z,8.77
2023-04-11T20:15:33.918Z,6.90
2023-04-11T20:18:35.450Z,10.15
2023-04-11T20:21:37.092Z,11.05
2023-04-11T20:24:38.713Z,8.80
2023-04-11T20:27:41.274Z,9.57
2023-04-11T20:30:42.906Z,9.32
2023-04-11T20:33:47.524Z,8.40
2023-04-11T20:36:49.046Z,5.32
2023-04-11T20:39:51.554Z,5.15
2023-04-11T20:42:53.213Z,7.88
2023-04-11T20:45:55.869Z,7.03
2023-04-11T20:48:57.427Z,10.90
2023-04-11T20:52:00.021Z,5.90
2023-04-11T20:55:02.525Z,7.75
2023-04-11T20:58:08.271Z,5.32
2023-04-11T21:01:09.811Z,7.47
2023-04-11T21:04:11.651Z,7.97
2023-04-11T21:07:13.214Z,5.80
2023-04-11T21:10:15.620Z,7.30
2023-04-11T21:13:17.092Z,5.80
2023-04-11T21:16:18.641Z,7.53
2023-04-11T21:19:20.235Z,6.28
2023-04-11T21:22:21.674Z,7.38
2023-04-11T21:25:23.944Z,6.57
2023-04-11T21:28:25.789Z,6.65
2023-04-11T21:31:27.275Z,6.97
2023-04-11T21:34:28.756Z,8.38
2023-04-11T21:37:30.334Z,5.45
2023-04-11T21:40:31.986Z,9.15
2023-04-11T21:43:33.407Z,8.70
2023-04-11T21:46:34.945Z,9.30
2023-04-11T21:49:36.519Z,7.40
2023-04-11T21:52:38.053Z,7.20
2023-04-11T21:55:44.554Z,8.23
2023-04-11T21:58:46.378Z,5.90
2023-04-11T22:01:48.225Z,6.20
2023-04-11T22:05:04.924Z,6.10
2023-04-11T22:08:13.178Z,4.43
2023-04-11T22:11:15.073Z,5.90
2023-04-11T22:14:18.055Z,9.38
2023-04-11T22:17:19.562Z,6.22
2023-04-11T22:20:21.082Z,5.93
2023-04-11T22:23:24.934Z,7.53
2023-04-11T22:26:34.186Z,7.63
2023-04-11T22:29:35.795Z,7.28
2023-04-11T22:32:37.947Z,9.95
2023-04-11T22:35:40.247Z,7.63
2023-04-11T22:38:41.701Z,8.85
2023-04-11T22:41:47.699Z,5.45
2023-04-11T22:44:49.247Z,6.57
2023-04-11T22:47:54.278Z,6.82
2023-04-11T22:50:59.099Z,7.90
2023-04-11T22:54:01.058Z,7.78
2023-04-11T22:57:02.573Z,8.05
2023-04-11T23:00:07.772Z,7.40
2023-04-11T23:03:09.951Z,9.38
2023-04-11T23:06:11.667Z,5.80
2023-04-11T23:09:14.958Z,5.93
2023-04-11T23:12:16.974Z,7.35
2023-04-11T23:15:19.282Z,5.10
2023-04-11T23:18:20.750Z,6.82
2023-04-11T23:21:22.214Z,8.40
2023-04-11T23:24:24.050Z,7.53
2023-04-11T23:27:25.570Z,8.75
2023-04-11T23:30:27.155Z,8.27
2023-04-11T23:33:28.597Z,10.00
2023-04-11T23:36:30.136Z,8.60
2023-04-11T23:39:31.734Z,5.90
2023-04-11T23:42:33.208Z,9.65
2023-04-11T23:45:34.657Z,5.60
2023-04-11T23:48:36.337Z,6.97
2023-04-11T23:51:37.769Z,5.57
2023-04-11T23:54:39.288Z,5.70
2023-04-11T23:57:40.919Z,6.03
